sensor_id;sensor_type;location;lat;lon;timestamp;P1;durP1;ratioP1;P2;durP2;ratioP2
45970;SDS011;31681;48.982;8.394;2022-08-11T00:00:33;4.70;;;2.08;;
45970;SDS011;31681;48.982;8.394;2022-08-11T00:02:59;9.60;;;2.47;;
45970;SDS011;31681;48.982;8.394;2022-08-11T00:05:27;5.03;;;2.10;;
45970;SDS011;31681;48.982;8.394;2022-08-11T00:07:54;3.30;;;1.80;;
45970;SDS011;31681;48.982;8.394;2022-08-11T00:10:22;3.38;;;2.13;;
45970;SDS011;31681;48.982;8.394;2022-08-11T00:12:51;3.28;;;2.08;;
45970;SDS011;31681;48.982;8.394;2022-08-11T00:15:16;3.15;;;2.20;;
45970;SDS011;31681;48.982;8.394;2022-08-11T00:17:42;2.17;;;1.98;;
45970;SDS011;31681;48.982;8.394;2022-08-11T00:20:09;3.67;;;2.22;;
45970;SDS011;31681;48.982;8.394;2022-08-11T00:22:38;3.65;;;2.10;;
45970;SDS011;31681;48.982;8.394;2022-08-11T00:25:08;3.65;;;2.00;;
45970;SDS011;31681;48.982;8.394;2022-08-11T00:27:35;2.80;;;2.60;;
45970;SDS011;31681;48.982;8.394;2022-08-11T00:30:00;4.20;;;2.20;;
45970;SDS011;31681;48.982;8.394;2022-08-11T00:32:26;3.35;;;2.10;;
45970;SDS011;31681;48.982;8.394;2022-08-11T00:34:51;3.22;;;2.08;;
45970;SDS011;31681;48.982;8.394;2022-08-11T00:37:19;2.30;;;2.10;;
45970;SDS011;31681;48.982;8.394;2022-08-11T00:39:46;6.47;;;2.58;;
45970;SDS011;31681;48.982;8.394;2022-08-11T00:44:43;4.55;;;2.05;;
45970;SDS011;31681;48.982;8.394;2022-08-11T00:47:23;3.58;;;2.15;;
45970;SDS011;31681;48.982;8.394;2022-08-11T00:49:57;4.30;;;2.00;;
45970;SDS011;31681;48.982;8.394;2022-08-11T00:52:31;3.47;;;2.03;;
45970;SDS011;31681;48.982;8.394;2022-08-11T00:55:24;7.03;;;2.38;;
45970;SDS011;31681;48.982;8.394;2022-08-11T01:00:31;5.20;;;2.72;;
45970;SDS011;31681;48.982;8.394;2022-08-11T01:24:35;3.53;;;2.08;;
45970;SDS011;31681;48.982;8.394;2022-08-11T01:27:14;5.93;;;2.83;;
45970;SDS011;31681;48.982;8.394;2022-08-11T01:29:55;2.15;;;1.83;;
45970;SDS011;31681;48.982;8.394;2022-08-11T01:46:20;2.50;;;1.98;;
45970;SDS011;31681;48.982;8.394;2022-08-11T01:51:43;2.78;;;2.20;;
45970;SDS011;31681;48.982;8.394;2022-08-11T02:15:07;5.07;;;2.10;;
45970;SDS011;31681;48.982;8.394;2022-08-11T02:17:36;5.35;;;2.40;;
45970;SDS011;31681;48.982;8.394;2022-08-11T02:20:09;3.42;;;2.10;;
45970;SDS011;31681;48.982;8.394;2022-08-11T02:23:00;3.58;;;2.22;;
45970;SDS011;31681;48.982;8.394;2022-08-11T02:25:58;3.63;;;2.58;;
45970;SDS011;31681;48.982;8.394;2022-08-11T02:28:36;3.17;;;2.08;;
45970;SDS011;31681;48.982;8.394;2022-08-11T02:31:16;4.78;;;2.72;;
45970;SDS011;31681;48.982;8.394;2022-08-11T02:34:12;4.00;;;2.20;;
45970;SDS011;31681;48.982;8.394;2022-08-11T02:39:26;8.02;;;2.70;;
45970;SDS011;31681;48.982;8.394;2022-08-11T02:44:50;3.75;;;2.72;;
45970;SDS011;31681;48.982;8.394;2022-08-11T02:49:57;3.45;;;2.17;;
45970;SDS011;31681;48.982;8.394;2022-08-11T02:52:30;2.80;;;2.20;;
45970;SDS011;31681;48.982;8.394;2022-08-11T02:57:26;4.27;;;2.63;;
45970;SDS011;31681;48.982;8.394;2022-08-11T02:59:55;2.63;;;2.42;;
45970;SDS011;31681;48.982;8.394;2022-08-11T03:04:58;3.42;;;2.60;;
45970;SDS011;31681;48.982;8.394;2022-08-11T03:07:28;4.82;;;2.75;;
45970;SDS011;31681;48.982;8.394;2022-08-11T03:12:32;4.95;;;2.63;;
45970;SDS011;31681;48.982;8.394;2022-08-11T03:15:22;4.43;;;2.85;;
45970;SDS011;31681;48.982;8.394;2022-08-11T03:18:25;5.40;;;2.58;;
45970;SDS011;31681;48.982;8.394;2022-08-11T03:21:04;3.25;;;2.58;;
45970;SDS011;31681;48.982;8.394;2022-08-11T03:23:46;2.65;;;2.45;;
45970;SDS011;31681;48.982;8.394;2022-08-11T03:31:53;3.05;;;2.53;;
45970;SDS011;31681;48.982;8.394;2022-08-11T03:34:21;3.40;;;2.85;;
45970;SDS011;31681;48.982;8.394;2022-08-11T03:42:16;4.00;;;2.45;;
45970;SDS011;31681;48.982;8.394;2022-08-11T03:47:47;5.45;;;2.58;;
45970;SDS011;31681;48.982;8.394;2022-08-11T03:50:21;3.25;;;2.50;;
45970;SDS011;31681;48.982;8.394;2022-08-11T03:53:04;5.25;;;2.60;;
45970;SDS011;31681;48.982;8.394;2022-08-11T03:58:27;3.90;;;2.95;;
45970;SDS011;31681;48.982;8.394;2022-08-11T04:09:14;4.25;;;2.50;;
45970;SDS011;31681;48.982;8.394;2022-08-11T04:24:51;4.67;;;2.70;;
45970;SDS011;31681;48.982;8.394;2022-08-11T04:57:10;4.07;;;2.90;;
45970;SDS011;31681;48.982;8.394;2022-08-11T05:03:02;5.10;;;2.90;;
45970;SDS011;31681;48.982;8.394;2022-08-11T05:13:47;3.08;;;2.63;;
45970;SDS011;31681;48.982;8.394;2022-08-11T05:16:50;5.75;;;3.10;;
45970;SDS011;31681;48.982;8.394;2022-08-11T05:19:35;4.18;;;2.97;;
45970;SDS011;31681;48.982;8.394;2022-08-11T05:22:19;4.13;;;3.00;;
45970;SDS011;31681;48.982;8.394;2022-08-11T05:25:09;4.60;;;2.88;;
45970;SDS011;31681;48.982;8.394;2022-08-11T05:28:14;5.07;;;2.80;;
45970;SDS011;31681;48.982;8.394;2022-08-11T05:30:59;6.82;;;3.13;;
45970;SDS011;31681;48.982;8.394;2022-08-11T05:33:49;4.38;;;2.70;;
45970;SDS011;31681;48.982;8.394;2022-08-11T05:36:36;4.53;;;2.92;;
45970;SDS011;31681;48.982;8.394;2022-08-11T05:39:10;3.25;;;2.85;;
45970;SDS011;31681;48.982;8.394;2022-08-11T05:41:56;6.25;;;3.00;;
45970;SDS011;31681;48.982;8.394;2022-08-11T05:44:43;5.68;;;2.95;;
45970;SDS011;31681;48.982;8.394;2022-08-11T05:47:27;10.32;;;3.45;;
45970;SDS011;31681;48.982;8.394;2022-08-11T05:50:12;7.13;;;3.10;;
45970;SDS011;31681;48.982;8.394;2022-08-11T05:52:56;8.18;;;3.20;;
45970;SDS011;31681;48.982;8.394;2022-08-11T05:55:41;5.80;;;3.13;;
45970;SDS011;31681;48.982;8.394;2022-08-11T05:58:25;3.78;;;2.90;;
45970;SDS011;31681;48.982;8.394;2022-08-11T06:00:55;3.55;;;2.65;;
45970;SDS011;31681;48.982;8.394;2022-08-11T06:03:25;4.10;;;2.92;;
45970;SDS011;31681;48.982;8.394;2022-08-11T06:05:51;7.68;;;3.00;;
45970;SDS011;31681;48.982;8.394;2022-08-11T06:08:17;5.45;;;2.70;;
45970;SDS011;31681;48.982;8.394;2022-08-11T06:10:43;4.65;;;2.83;;
45970;SDS011;31681;48.982;8.394;2022-08-11T06:13:09;4.22;;;2.75;;
45970;SDS011;31681;48.982;8.394;2022-08-11T06:15:45;5.03;;;2.90;;
45970;SDS011;31681;48.982;8.394;2022-08-11T06:18:11;4.78;;;3.00;;
45970;SDS011;31681;48.982;8.394;2022-08-11T06:20:46;4.55;;;2.67;;
45970;SDS011;31681;48.982;8.394;2022-08-11T06:23:12;7.20;;;3.17;;
45970;SDS011;31681;48.982;8.394;2022-08-11T06:25:39;5.72;;;2.97;;
45970;SDS011;31681;48.982;8.394;2022-08-11T06:28:05;7.60;;;2.78;;
45970;SDS011;31681;48.982;8.394;2022-08-11T06:33:04;4.75;;;3.10;;
45970;SDS011;31681;48.982;8.394;2022-08-11T06:35:35;7.22;;;3.20;;
45970;SDS011;31681;48.982;8.394;2022-08-11T06:38:12;3.40;;;2.80;;
45970;SDS011;31681;48.982;8.394;2022-08-11T06:40:53;4.72;;;3.33;;
45970;SDS011;31681;48.982;8.394;2022-08-11T06:43:50;5.78;;;2.65;;
45970;SDS011;31681;48.982;8.394;2022-08-11T06:46:17;4.43;;;2.78;;
45970;SDS011;31681;48.982;8.394;2022-08-11T06:48:47;5.68;;;2.83;;
45970;SDS011;31681;48.982;8.394;2022-08-11T06:51:13;8.13;;;2.97;;
45970;SDS011;31681;48.982;8.394;2022-08-11T06:53:43;5.10;;;2.70;;
45970;SDS011;31681;48.982;8.394;2022-08-11T06:56:12;8.07;;;3.25;;
45970;SDS011;31681;48.982;8.394;2022-08-11T06:58:56;6.38;;;2.78;;
45970;SDS011;31681;48.982;8.394;2022-08-11T07:05:04;5.43;;;2.85;;
45970;SDS011;31681;48.982;8.394;2022-08-11T07:07:49;6.28;;;2.97;;
45970;SDS011;31681;48.982;8.394;2022-08-11T07:13:39;8.85;;;2.88;;
45970;SDS011;31681;48.982;8.394;2022-08-11T07:16:27;7.90;;;2.85;;
45970;SDS011;31681;48.982;8.394;2022-08-11T07:19:02;3.70;;;2.97;;
45970;SDS011;31681;48.982;8.394;2022-08-11T07:21:47;6.95;;;2.92;;
45970;SDS011;31681;48.982;8.394;2022-08-11T07:29:43;4.70;;;2.53;;
45970;SDS011;31681;48.982;8.394;2022-08-11T07:42:30;4.22;;;2.90;;
45970;SDS011;31681;48.982;8.394;2022-08-11T07:50:08;6.10;;;2.92;;
45970;SDS011;31681;48.982;8.394;2022-08-11T07:52:54;5.05;;;2.80;;
45970;SDS011;31681;48.982;8.394;2022-08-11T07:55:20;6.50;;;3.10;;
45970;SDS011;31681;48.982;8.394;2022-08-11T07:57:46;7.50;;;2.75;;
45970;SDS011;31681;48.982;8.394;2022-08-11T08:00:41;11.07;;;3.25;;
45970;SDS011;31681;48.982;8.394;2022-08-11T08:03:26;4.55;;;2.65;;
45970;SDS011;31681;48.982;8.394;2022-08-11T08:06:10;5.65;;;2.80;;
45970;SDS011;31681;48.982;8.394;2022-08-11T08:08:54;7.15;;;2.80;;
45970;SDS011;31681;48.982;8.394;2022-08-11T08:11:39;4.78;;;2.70;;
45970;SDS011;31681;48.982;8.394;2022-08-11T08:14:23;12.73;;;3.00;;
45970;SDS011;31681;48.982;8.394;2022-08-11T08:17:07;5.20;;;2.80;;
45970;SDS011;31681;48.982;8.394;2022-08-11T08:19:51;4.72;;;3.00;;
45970;SDS011;31681;48.982;8.394;2022-08-11T08:22:17;3.22;;;2.47;;
45970;SDS011;31681;48.982;8.394;2022-08-11T08:24:42;3.60;;;3.03;;
45970;SDS011;31681;48.982;8.394;2022-08-11T08:27:08;3.15;;;2.58;;
45970;SDS011;31681;48.982;8.394;2022-08-11T08:29:36;3.08;;;2.60;;
45970;SDS011;31681;48.982;8.394;2022-08-11T08:32:20;5.03;;;2.70;;
45970;SDS011;31681;48.982;8.394;2022-08-11T08:34:48;4.80;;;2.83;;
45970;SDS011;31681;48.982;8.394;2022-08-11T08:37:14;3.78;;;2.53;;
45970;SDS011;31681;48.982;8.394;2022-08-11T08:39:43;7.32;;;2.83;;
45970;SDS011;31681;48.982;8.394;2022-08-11T08:42:09;2.85;;;2.60;;
45970;SDS011;31681;48.982;8.394;2022-08-11T08:44:38;5.93;;;2.63;;
45970;SDS011;31681;48.982;8.394;2022-08-11T08:47:05;4.88;;;2.80;;
45970;SDS011;31681;48.982;8.394;2022-08-11T08:49:32;6.47;;;2.85;;
45970;SDS011;31681;48.982;8.394;2022-08-11T08:51:59;3.22;;;2.70;;
45970;SDS011;31681;48.982;8.394;2022-08-11T08:54:35;4.05;;;2.58;;
45970;SDS011;31681;48.982;8.394;2022-08-11T08:57:01;3.00;;;2.70;;
45970;SDS011;31681;48.982;8.394;2022-08-11T08:59:29;4.72;;;2.53;;
45970;SDS011;31681;48.982;8.394;2022-08-11T09:02:03;4.68;;;2.63;;
45970;SDS011;31681;48.982;8.394;2022-08-11T09:04:29;3.95;;;2.47;;
45970;SDS011;31681;48.982;8.394;2022-08-11T09:06:55;6.40;;;3.00;;
45970;SDS011;31681;48.982;8.394;2022-08-11T09:09:22;3.13;;;2.38;;
45970;SDS011;31681;48.982;8.394;2022-08-11T09:11:48;4.07;;;2.95;;
45970;SDS011;31681;48.982;8.394;2022-08-11T09:14:14;3.03;;;2.60;;
45970;SDS011;31681;48.982;8.394;2022-08-11T09:16:39;4.35;;;2.50;;
45970;SDS011;31681;48.982;8.394;2022-08-11T09:19:12;4.05;;;2.60;;
45970;SDS011;31681;48.982;8.394;2022-08-11T09:21:41;5.95;;;2.88;;
45970;SDS011;31681;48.982;8.394;2022-08-11T09:24:07;4.47;;;2.67;;
45970;SDS011;31681;48.982;8.394;2022-08-11T09:26:51;5.03;;;2.67;;
45970;SDS011;31681;48.982;8.394;2022-08-11T09:29:28;2.75;;;2.50;;
45970;SDS011;31681;48.982;8.394;2022-08-11T09:32:10;4.55;;;2.55;;
45970;SDS011;31681;48.982;8.394;2022-08-11T09:34:39;7.35;;;2.88;;
45970;SDS011;31681;48.982;8.394;2022-08-11T09:37:10;4.30;;;2.80;;
45970;SDS011;31681;48.982;8.394;2022-08-11T09:39:57;4.18;;;2.30;;
45970;SDS011;31681;48.982;8.394;2022-08-11T09:42:41;3.92;;;2.47;;
45970;SDS011;31681;48.982;8.394;2022-08-11T09:45:25;4.50;;;2.97;;
45970;SDS011;31681;48.982;8.394;2022-08-11T09:47:51;2.85;;;2.53;;
45970;SDS011;31681;48.982;8.394;2022-08-11T09:50:17;4.53;;;2.55;;
45970;SDS011;31681;48.982;8.394;2022-08-11T09:52:43;4.05;;;3.35;;
45970;SDS011;31681;48.982;8.394;2022-08-11T09:55:09;6.30;;;3.08;;
45970;SDS011;31681;48.982;8.394;2022-08-11T09:57:37;5.93;;;2.60;;
45970;SDS011;31681;48.982;8.394;2022-08-11T10:00:26;6.82;;;2.70;;
45970;SDS011;31681;48.982;8.394;2022-08-11T10:02:52;5.20;;;2.70;;
45970;SDS011;31681;48.982;8.394;2022-08-11T10:05:19;5.25;;;2.85;;
45970;SDS011;31681;48.982;8.394;2022-08-11T10:08:04;4.63;;;2.60;;
45970;SDS011;31681;48.982;8.394;2022-08-11T10:10:29;5.30;;;2.90;;
45970;SDS011;31681;48.982;8.394;2022-08-11T10:12:58;4.53;;;2.50;;
45970;SDS011;31681;48.982;8.394;2022-08-11T10:15:29;4.78;;;2.40;;
45970;SDS011;31681;48.982;8.394;2022-08-11T10:18:05;6.05;;;2.53;;
45970;SDS011;31681;48.982;8.394;2022-08-11T10:20:51;6.18;;;3.38;;
45970;SDS011;31681;48.982;8.394;2022-08-11T10:23:16;3.85;;;2.40;;
45970;SDS011;31681;48.982;8.394;2022-08-11T10:26:01;5.80;;;3.17;;
45970;SDS011;31681;48.982;8.394;2022-08-11T10:28:45;5.75;;;2.65;;
45970;SDS011;31681;48.982;8.394;2022-08-11T10:31:11;4.50;;;2.97;;
45970;SDS011;31681;48.982;8.394;2022-08-11T10:33:55;3.45;;;2.53;;
45970;SDS011;31681;48.982;8.394;2022-08-11T10:36:40;4.97;;;2.78;;
45970;SDS011;31681;48.982;8.394;2022-08-11T10:39:12;5.25;;;2.70;;
45970;SDS011;31681;48.982;8.394;2022-08-11T10:41:41;5.72;;;3.00;;
45970;SDS011;31681;48.982;8.394;2022-08-11T10:44:24;4.75;;;2.30;;
45970;SDS011;31681;48.982;8.394;2022-08-11T10:46:50;7.28;;;2.70;;
45970;SDS011;31681;48.982;8.394;2022-08-11T10:49:34;2.97;;;2.47;;
45970;SDS011;31681;48.982;8.394;2022-08-11T10:52:00;5.28;;;2.90;;
45970;SDS011;31681;48.982;8.394;2022-08-11T10:54:44;4.15;;;2.78;;
45970;SDS011;31681;48.982;8.394;2022-08-11T10:57:28;2.83;;;2.55;;
45970;SDS011;31681;48.982;8.394;2022-08-11T11:00:12;3.10;;;2.45;;
45970;SDS011;31681;48.982;8.394;2022-08-11T11:02:40;4.20;;;2.55;;
45970;SDS011;31681;48.982;8.394;2022-08-11T11:05:10;4.55;;;2.40;;
45970;SDS011;31681;48.982;8.394;2022-08-11T11:07:59;3.08;;;2.30;;
45970;SDS011;31681;48.982;8.394;2022-08-11T11:10:24;4.22;;;1.92;;
45970;SDS011;31681;48.982;8.394;2022-08-11T11:12:51;2.38;;;2.10;;
45970;SDS011;31681;48.982;8.394;2022-08-11T11:15:36;5.43;;;2.90;;
45970;SDS011;31681;48.982;8.394;2022-08-11T11:18:28;3.28;;;2.30;;
45970;SDS011;31681;48.982;8.394;2022-08-11T11:21:02;5.95;;;2.60;;
45970;SDS011;31681;48.982;8.394;2022-08-11T11:28:50;4.38;;;2.42;;
45970;SDS011;31681;48.982;8.394;2022-08-11T11:31:33;3.20;;;2.00;;
45970;SDS011;31681;48.982;8.394;2022-08-11T11:34:11;3.30;;;2.00;;
45970;SDS011;31681;48.982;8.394;2022-08-11T11:36:49;3.38;;;2.40;;
45970;SDS011;31681;48.982;8.394;2022-08-11T11:39:19;3.78;;;2.15;;
45970;SDS011;31681;48.982;8.394;2022-08-11T11:41:44;2.50;;;2.20;;
45970;SDS011;31681;48.982;8.394;2022-08-11T11:44:10;2.55;;;2.25;;
45970;SDS011;31681;48.982;8.394;2022-08-11T11:46:36;6.43;;;2.30;;
45970;SDS011;31681;48.982;8.394;2022-08-11T11:49:01;3.40;;;2.30;;
45970;SDS011;31681;48.982;8.394;2022-08-11T11:51:31;4.10;;;2.33;;
45970;SDS011;31681;48.982;8.394;2022-08-11T11:53:57;3.08;;;2.50;;
45970;SDS011;31681;48.982;8.394;2022-08-11T11:56:22;3.25;;;2.03;;
45970;SDS011;31681;48.982;8.394;2022-08-11T11:58:48;5.90;;;2.38;;
45970;SDS011;31681;48.982;8.394;2022-08-11T12:01:52;6.43;;;2.30;;
45970;SDS011;31681;48.982;8.394;2022-08-11T12:04:18;4.38;;;2.13;;
45970;SDS011;31681;48.982;8.394;2022-08-11T12:06:44;4.15;;;2.20;;
45970;SDS011;31681;48.982;8.394;2022-08-11T12:09:11;4.18;;;2.22;;
45970;SDS011;31681;48.982;8.394;2022-08-11T12:11:38;3.40;;;1.77;;
45970;SDS011;31681;48.982;8.394;2022-08-11T12:14:22;3.03;;;2.17;;
45970;SDS011;31681;48.982;8.394;2022-08-11T12:16:51;3.85;;;2.08;;
45970;SDS011;31681;48.982;8.394;2022-08-11T12:19:17;5.95;;;2.17;;
45970;SDS011;31681;48.982;8.394;2022-08-11T12:21:42;5.03;;;2.40;;
45970;SDS011;31681;48.982;8.394;2022-08-11T12:24:30;3.58;;;1.83;;
45970;SDS011;31681;48.982;8.394;2022-08-11T12:27:15;4.78;;;2.55;;
45970;SDS011;31681;48.982;8.394;2022-08-11T12:29:47;1.98;;;1.88;;
45970;SDS011;31681;48.982;8.394;2022-08-11T12:32:13;5.65;;;1.90;;
45970;SDS011;31681;48.982;8.394;2022-08-11T12:34:38;6.90;;;2.20;;
45970;SDS011;31681;48.982;8.394;2022-08-11T12:37:03;6.50;;;2.28;;
45970;SDS011;31681;48.982;8.394;2022-08-11T12:39:37;2.45;;;2.03;;
45970;SDS011;31681;48.982;8.394;2022-08-11T12:42:21;2.55;;;2.00;;
45970;SDS011;31681;48.982;8.394;2022-08-11T12:45:21;2.13;;;1.90;;
45970;SDS011;31681;48.982;8.394;2022-08-11T12:50:44;4.40;;;2.25;;
45970;SDS011;31681;48.982;8.394;2022-08-11T12:53:30;2.65;;;2.33;;
45970;SDS011;31681;48.982;8.394;2022-08-11T12:55:56;2.22;;;1.95;;
45970;SDS011;31681;48.982;8.394;2022-08-11T12:58:41;3.00;;;2.08;;
45970;SDS011;31681;48.982;8.394;2022-08-11T13:01:08;4.97;;;2.13;;
45970;SDS011;31681;48.982;8.394;2022-08-11T13:03:52;3.75;;;2.00;;
45970;SDS011;31681;48.982;8.394;2022-08-11T13:06:37;3.20;;;1.90;;
45970;SDS011;31681;48.982;8.394;2022-08-11T13:09:02;3.67;;;2.05;;
45970;SDS011;31681;48.982;8.394;2022-08-11T13:11:28;2.28;;;2.10;;
45970;SDS011;31681;48.982;8.394;2022-08-11T13:14:13;3.80;;;2.20;;
45970;SDS011;31681;48.982;8.394;2022-08-11T13:16:39;3.17;;;1.70;;
45970;SDS011;31681;48.982;8.394;2022-08-11T13:19:23;6.38;;;2.17;;
45970;SDS011;31681;48.982;8.394;2022-08-11T13:21:49;5.25;;;2.15;;
45970;SDS011;31681;48.982;8.394;2022-08-11T13:24:14;6.50;;;2.13;;
45970;SDS011;31681;48.982;8.394;2022-08-11T13:26:42;2.13;;;1.92;;
45970;SDS011;31681;48.982;8.394;2022-08-11T13:29:08;5.07;;;2.20;;
45970;SDS011;31681;48.982;8.394;2022-08-11T13:31:33;7.40;;;2.40;;
45970;SDS011;31681;48.982;8.394;2022-08-11T13:33:58;5.15;;;2.30;;
45970;SDS011;31681;48.982;8.394;2022-08-11T13:36:25;5.00;;;2.13;;
45970;SDS011;31681;48.982;8.394;2022-08-11T13:38:53;2.95;;;2.05;;
45970;SDS011;31681;48.982;8.394;2022-08-11T13:41:18;3.35;;;2.25;;
45970;SDS011;31681;48.982;8.394;2022-08-11T13:44:03;3.35;;;2.15;;
45970;SDS011;31681;48.982;8.394;2022-08-11T13:46:28;4.78;;;2.35;;
45970;SDS011;31681;48.982;8.394;2022-08-11T13:48:54;4.77;;;2.07;;
45970;SDS011;31681;48.982;8.394;2022-08-11T13:51:20;4.22;;;2.05;;
45970;SDS011;31681;48.982;8.394;2022-08-11T13:54:00;3.85;;;1.77;;
45970;SDS011;31681;48.982;8.394;2022-08-11T13:56:26;2.42;;;1.98;;
45970;SDS011;31681;48.982;8.394;2022-08-11T13:58:53;2.17;;;1.98;;
45970;SDS011;31681;48.982;8.394;2022-08-11T14:01:19;2.17;;;1.80;;
45970;SDS011;31681;48.982;8.394;2022-08-11T14:03:45;3.03;;;1.92;;
45970;SDS011;31681;48.982;8.394;2022-08-11T14:06:11;4.13;;;1.95;;
45970;SDS011;31681;48.982;8.394;2022-08-11T14:08:37;3.03;;;2.00;;
45970;SDS011;31681;48.982;8.394;2022-08-11T14:11:03;3.13;;;2.13;;
45970;SDS011;31681;48.982;8.394;2022-08-11T14:13:47;3.35;;;2.47;;
45970;SDS011;31681;48.982;8.394;2022-08-11T14:19:03;3.65;;;2.00;;
45970;SDS011;31681;48.982;8.394;2022-08-11T14:21:29;2.10;;;1.90;;
45970;SDS011;31681;48.982;8.394;2022-08-11T14:24:17;3.63;;;1.90;;
45970;SDS011;31681;48.982;8.394;2022-08-11T14:26:42;1.83;;;1.63;;
45970;SDS011;31681;48.982;8.394;2022-08-11T14:29:13;3.70;;;2.00;;
45970;SDS011;31681;48.982;8.394;2022-08-11T14:31:39;3.22;;;1.98;;
45970;SDS011;31681;48.982;8.394;2022-08-11T14:34:07;3.38;;;1.77;;
45970;SDS011;31681;48.982;8.394;2022-08-11T14:36:38;4.45;;;2.22;;
45970;SDS011;31681;48.982;8.394;2022-08-11T14:39:06;4.10;;;2.05;;
45970;SDS011;31681;48.982;8.394;2022-08-11T14:41:31;2.13;;;1.70;;
45970;SDS011;31681;48.982;8.394;2022-08-11T14:44:15;3.20;;;2.03;;
45970;SDS011;31681;48.982;8.394;2022-08-11T14:47:00;2.10;;;1.90;;
45970;SDS011;31681;48.982;8.394;2022-08-11T14:49:30;3.97;;;2.03;;
45970;SDS011;31681;48.982;8.394;2022-08-11T14:51:56;3.40;;;2.13;;
45970;SDS011;31681;48.982;8.394;2022-08-11T14:54:27;2.10;;;1.90;;
45970;SDS011;31681;48.982;8.394;2022-08-11T14:57:11;2.30;;;1.67;;
45970;SDS011;31681;48.982;8.394;2022-08-11T14:59:37;3.13;;;2.13;;
45970;SDS011;31681;48.982;8.394;2022-08-11T15:02:03;4.43;;;1.90;;
45970;SDS011;31681;48.982;8.394;2022-08-11T15:04:47;3.47;;;1.85;;
45970;SDS011;31681;48.982;8.394;2022-08-11T15:07:12;2.88;;;1.75;;
45970;SDS011;31681;48.982;8.394;2022-08-11T15:09:41;5.75;;;1.80;;
45970;SDS011;31681;48.982;8.394;2022-08-11T15:12:08;3.97;;;1.90;;
45970;SDS011;31681;48.982;8.394;2022-08-11T15:14:34;3.05;;;1.80;;
45970;SDS011;31681;48.982;8.394;2022-08-11T15:17:18;5.28;;;2.03;;
45970;SDS011;31681;48.982;8.394;2022-08-11T15:19:44;3.53;;;2.08;;
45970;SDS011;31681;48.982;8.394;2022-08-11T15:22:28;3.00;;;1.70;;
45970;SDS011;31681;48.982;8.394;2022-08-11T15:25:13;2.80;;;2.13;;
45970;SDS011;31681;48.982;8.394;2022-08-11T15:27:38;6.13;;;2.33;;
45970;SDS011;31681;48.982;8.394;2022-08-11T15:30:23;2.00;;;1.80;;
45970;SDS011;31681;48.982;8.394;2022-08-11T15:33:08;4.90;;;2.13;;
45970;SDS011;31681;48.982;8.394;2022-08-11T15:35:53;4.40;;;2.13;;
45970;SDS011;31681;48.982;8.394;2022-08-11T15:38:39;6.57;;;1.95;;
45970;SDS011;31681;48.982;8.394;2022-08-11T15:41:05;3.17;;;1.77;;
45970;SDS011;31681;48.982;8.394;2022-08-11T15:43:51;3.30;;;1.80;;
45970;SDS011;31681;48.982;8.394;2022-08-11T15:46:48;2.30;;;1.70;;
45970;SDS011;31681;48.982;8.394;2022-08-11T15:49:16;3.55;;;2.42;;
45970;SDS011;31681;48.982;8.394;2022-08-11T15:51:45;3.03;;;2.15;;
45970;SDS011;31681;48.982;8.394;2022-08-11T15:54:13;4.13;;;2.00;;
45970;SDS011;31681;48.982;8.394;2022-08-11T15:56:43;5.05;;;2.10;;
45970;SDS011;31681;48.982;8.394;2022-08-11T15:59:10;2.92;;;1.67;;
45970;SDS011;31681;48.982;8.394;2022-08-11T16:01:54;3.75;;;1.88;;
45970;SDS011;31681;48.982;8.394;2022-08-11T16:04:40;4.20;;;1.90;;
45970;SDS011;31681;48.982;8.394;2022-08-11T16:07:07;4.20;;;1.55;;
45970;SDS011;31681;48.982;8.394;2022-08-11T16:12:02;3.27;;;2.03;;
45970;SDS011;31681;48.982;8.394;2022-08-11T16:14:28;2.83;;;1.65;;
45970;SDS011;31681;48.982;8.394;2022-08-11T16:17:14;4.35;;;1.75;;
45970;SDS011;31681;48.982;8.394;2022-08-11T16:19:41;2.88;;;1.85;;
45970;SDS011;31681;48.982;8.394;2022-08-11T16:22:07;2.35;;;2.10;;
45970;SDS011;31681;48.982;8.394;2022-08-11T16:24:37;2.35;;;1.60;;
45970;SDS011;31681;48.982;8.394;2022-08-11T16:27:03;6.82;;;2.13;;
45970;SDS011;31681;48.982;8.394;2022-08-11T16:29:30;8.45;;;1.90;;
45970;SDS011;31681;48.982;8.394;2022-08-11T16:31:56;4.28;;;1.65;;
45970;SDS011;31681;48.982;8.394;2022-08-11T16:34:40;2.28;;;1.73;;
45970;SDS011;31681;48.982;8.394;2022-08-11T16:37:25;4.63;;;1.75;;
45970;SDS011;31681;48.982;8.394;2022-08-11T16:40:09;1.75;;;1.63;;
45970;SDS011;31681;48.982;8.394;2022-08-11T16:42:35;2.25;;;1.55;;
45970;SDS011;31681;48.982;8.394;2022-08-11T16:45:20;1.92;;;1.75;;
45970;SDS011;31681;48.982;8.394;2022-08-11T16:48:05;4.75;;;2.97;;
45970;SDS011;31681;48.982;8.394;2022-08-11T16:50:31;3.75;;;2.13;;
45970;SDS011;31681;48.982;8.394;2022-08-11T16:52:56;1.98;;;1.83;;
45970;SDS011;31681;48.982;8.394;2022-08-11T16:55:22;4.43;;;2.67;;
45970;SDS011;31681;48.982;8.394;2022-08-11T16:57:47;5.35;;;1.60;;
45970;SDS011;31681;48.982;8.394;2022-08-11T17:00:31;2.75;;;1.75;;
45970;SDS011;31681;48.982;8.394;2022-08-11T17:02:57;3.60;;;2.00;;
45970;SDS011;31681;48.982;8.394;2022-08-11T17:05:45;3.55;;;2.33;;
45970;SDS011;31681;48.982;8.394;2022-08-11T17:08:34;4.13;;;2.33;;
45970;SDS011;31681;48.982;8.394;2022-08-11T17:11:18;4.03;;;2.25;;
45970;SDS011;31681;48.982;8.394;2022-08-11T17:14:09;4.80;;;1.90;;
45970;SDS011;31681;48.982;8.394;2022-08-11T17:16:36;4.95;;;2.17;;
45970;SDS011;31681;48.982;8.394;2022-08-11T17:19:07;4.78;;;2.08;;
45970;SDS011;31681;48.982;8.394;2022-08-11T17:21:47;3.05;;;1.90;;
45970;SDS011;31681;48.982;8.394;2022-08-11T17:24:45;3.05;;;2.10;;
45970;SDS011;31681;48.982;8.394;2022-08-11T17:27:11;2.90;;;2.05;;
45970;SDS011;31681;48.982;8.394;2022-08-11T17:29:45;1.95;;;1.65;;
45970;SDS011;31681;48.982;8.394;2022-08-11T17:32:12;5.38;;;2.35;;
45970;SDS011;31681;48.982;8.394;2022-08-11T17:34:57;4.72;;;2.10;;
45970;SDS011;31681;48.982;8.394;2022-08-11T17:37:41;9.98;;;2.20;;
45970;SDS011;31681;48.982;8.394;2022-08-11T17:40:08;2.65;;;1.95;;
45970;SDS011;31681;48.982;8.394;2022-08-11T17:42:34;6.85;;;2.08;;
45970;SDS011;31681;48.982;8.394;2022-08-11T17:45:19;7.55;;;2.35;;
45970;SDS011;31681;48.982;8.394;2022-08-11T17:48:03;4.75;;;2.30;;
45970;SDS011;31681;48.982;8.394;2022-08-11T17:50:47;3.38;;;1.92;;
45970;SDS011;31681;48.982;8.394;2022-08-11T17:53:13;5.07;;;2.10;;
45970;SDS011;31681;48.982;8.394;2022-08-11T17:55:58;2.75;;;2.05;;
45970;SDS011;31681;48.982;8.394;2022-08-11T17:58:42;4.07;;;1.92;;
45970;SDS011;31681;48.982;8.394;2022-08-11T18:01:27;5.55;;;2.30;;
45970;SDS011;31681;48.982;8.394;2022-08-11T18:03:59;5.05;;;2.40;;
45970;SDS011;31681;48.982;8.394;2022-08-11T18:06:26;4.93;;;2.40;;
45970;SDS011;31681;48.982;8.394;2022-08-11T18:08:53;2.75;;;2.25;;
45970;SDS011;31681;48.982;8.394;2022-08-11T18:11:38;4.53;;;2.45;;
45970;SDS011;31681;48.982;8.394;2022-08-11T18:14:22;5.15;;;2.40;;
45970;SDS011;31681;48.982;8.394;2022-08-11T18:17:06;4.97;;;2.58;;
45970;SDS011;31681;48.982;8.394;2022-08-11T18:19:50;5.10;;;2.47;;
45970;SDS011;31681;48.982;8.394;2022-08-11T18:22:35;2.65;;;2.45;;
45970;SDS011;31681;48.982;8.394;2022-08-11T18:25:20;3.60;;;2.28;;
45970;SDS011;31681;48.982;8.394;2022-08-11T18:28:06;5.32;;;2.30;;
45970;SDS011;31681;48.982;8.394;2022-08-11T18:30:52;3.10;;;2.60;;
45970;SDS011;31681;48.982;8.394;2022-08-11T18:33:38;4.38;;;3.15;;
45970;SDS011;31681;48.982;8.394;2022-08-11T18:36:26;4.15;;;2.75;;
45970;SDS011;31681;48.982;8.394;2022-08-11T18:39:12;6.40;;;3.00;;
45970;SDS011;31681;48.982;8.394;2022-08-11T18:41:57;6.88;;;2.45;;
45970;SDS011;31681;48.982;8.394;2022-08-11T18:44:42;5.03;;;3.25;;
45970;SDS011;31681;48.982;8.394;2022-08-11T18:47:27;5.80;;;2.88;;
45970;SDS011;31681;48.982;8.394;2022-08-11T18:50:11;4.28;;;2.80;;
45970;SDS011;31681;48.982;8.394;2022-08-11T18:52:55;6.85;;;2.85;;
45970;SDS011;31681;48.982;8.394;2022-08-11T18:55:40;7.15;;;2.50;;